Time;durP1;ratioP1;P1;durP2;ratioP2;P2;SDS_P1;SDS_P2;PMS_P1;PMS_P2;Temp;Humidity;BMP_temperature;BMP_pressure;BME280_temperature;BME280_humidity;BME280_pressure;Samples;Min_cycle;Max_cycle;Signal;HPM_P1;HPM_P2
2023/10/22 00:05:46;;;;;;;31.60;28.40;;;;;;;12.72;100.00;98483.09;431554;1271;139553;-66
2023/10/22 00:15:52;;;;;;;32.30;28.10;;;;;;;12.77;100.00;98474.92;430785;1271;141256;-65
2023/10/22 00:25:58;;;;;;;29.20;26.00;;;;;;;12.77;100.00;98469.65;430523;1270;140712;-65
2023/10/22 00:36:04;;;;;;;30.00;26.70;;;;;;;12.75;100.00;98475.06;430561;1270;140266;-66
2023/10/22 00:46:14;;;;;;;36.20;29.70;;;;;;;12.67;100.00;98479.44;430546;1272;139793;-64
2023/10/22 00:56:22;;;;;;;32.80;29.30;;;;;;;12.62;100.00;98474.32;430429;1272;140221;-65
2023/10/22 01:06:30;;;;;;;34.40;30.70;;;;;;;12.59;100.00;98478.95;430625;1272;140529;-65
2023/10/22 01:16:36;;;;;;;37.00;31.10;;;;;;;12.58;100.00;98469.60;431400;1269;141146;-63
2023/10/22 01:26:44;;;;;;;31.70;28.40;;;;;;;12.53;100.00;98468.44;430761;1271;139635;-64
2023/10/22 01:36:48;;;;;;;;;;;;;;;12.47;100.00;98455.44;431127;1272;139884;-63
2023/10/22 01:46:54;;;;;;;29.40;26.40;;;;;;;12.40;100.00;98472.20;431341;1270;125941;-63
2023/10/22 01:57:00;;;;;;;31.50;27.50;;;;;;;12.31;100.00;98483.70;430668;1272;139796;-63
2023/10/22 02:07:06;;;;;;;25.70;23.10;;;;;;;12.24;100.00;98469.09;431115;1271;141614;-63
2023/10/22 02:17:12;;;;;;;21.50;18.80;;;;;;;12.14;100.00;98477.33;430602;1271;141476;-63
2023/10/22 02:27:17;;;;;;;19.10;17.10;;;;;;;12.04;100.00;98490.84;430523;1272;140875;-63
2023/10/22 02:37:23;;;;;;;21.30;17.10;;;;;;;11.97;100.00;98501.46;430535;1270;140589;-63
2023/10/22 02:47:29;;;;;;;18.90;14.40;;;;;;;11.89;100.00;98492.10;430701;1269;141361;-63
2023/10/22 02:57:35;;;;;;;15.70;13.10;;;;;;;11.75;100.00;98496.83;430574;1272;139848;-62
2023/10/22 03:07:41;;;;;;;13.90;11.80;;;;;;;11.61;100.00;98485.67;430640;1271;139690;-64
2023/10/22 03:17:47;;;;;;;12.90;11.60;;;;;;;11.50;100.00;98484.92;430593;1272;139725;-64
2023/10/22 03:27:53;;;;;;;10.80;9.80;;;;;;;11.42;100.00;98481.52;430963;1272;139846;-64
2023/10/22 03:37:59;;;;;;;10.60;9.00;;;;;;;11.34;100.00;98475.89;431043;1272;139587;-63
2023/10/22 03:48:06;;;;;;;10.50;9.30;;;;;;;11.27;100.00;98450.73;431303;1272;139843;-63
2023/10/22 03:58:12;;;;;;;8.90;8.00;;;;;;;11.19;100.00;98429.98;430681;1271;140438;-62
2023/10/22 04:08:17;;;;;;;7.10;6.50;;;;;;;11.14;100.00;98423.95;430371;1271;139352;-62
2023/10/22 04:18:23;;;;;;;6.80;6.20;;;;;;;11.11;100.00;98404.75;430615;1272;139312;-63
2023/10/22 04:28:30;;;;;;;7.00;4.40;;;;;;;11.11;100.00;98396.77;431045;1273;139263;-64
2023/10/22 04:38:35;;;;;;;5.80;5.30;;;;;;;11.12;100.00;98388.48;430853;1271;139878;-64
2023/10/22 04:48:41;;;;;;;7.30;5.40;;;;;;;11.11;100.00;98390.09;431107;1272;139641;-64
2023/10/22 04:58:48;;;;;;;6.40;5.80;;;;;;;11.12;100.00;98394.55;431142;1273;140434;-62
2023/10/22 05:08:54;;;;;;;6.60;5.90;;;;;;;11.10;100.00;98387.03;430920;1272;139662;-62
2023/10/22 05:18:59;;;;;;;7.70;7.00;;;;;;;11.09;100.00;98389.55;430743;1273;140461;-64
2023/10/22 05:29:06;;;;;;;7.30;6.70;;;;;;;11.10;100.00;98393.89;430526;1271;139295;-62
2023/10/22 05:39:12;;;;;;;7.10;6.40;;;;;;;11.11;100.00;98400.48;430480;1273;139213;-63
2023/10/22 05:49:20;;;;;;;7.20;6.60;;;;;;;11.16;100.00;98410.54;430724;1273;139298;-63
2023/10/22 05:59:25;;;;;;;;;;;;;;;11.19;100.00;98401.17;430533;1272;139368;-64
2023/10/22 06:09:30;;;;;;;8.80;7.90;;;;;;;11.21;100.00;98388.84;430614;1272;125874;-64
2023/10/22 06:19:36;;;;;;;8.50;7.70;;;;;;;11.26;100.00;98387.05;430541;1270;141441;-64
2023/10/22 06:29:47;;;;;;;8.60;6.80;;;;;;;11.35;100.00;98372.64;430774;1273;139402;-65
2023/10/22 06:39:55;;;;;;;6.90;6.20;;;;;;;11.44;100.00;98363.43;431181;1273;140276;-65
2023/10/22 06:50:01;;;;;;;6.90;6.40;;;;;;;11.53;100.00;98350.61;431200;1272;213269;-64
2023/10/22 07:00:09;;;;;;;6.90;6.30;;;;;;;11.61;100.00;98335.68;431301;1273;139476;-64
2023/10/22 07:10:16;;;;;;;7.40;6.70;;;;;;;11.70;100.00;98312.96;434464;1273;139281;-65
2023/10/22 07:20:22;;;;;;;6.50;5.90;;;;;;;11.77;100.00;98293.26;431577;1273;139458;-64
2023/10/22 07:30:29;;;;;;;6.90;6.40;;;;;;;11.87;100.00;98283.40;431392;1273;139377;-64
2023/10/22 07:40:37;;;;;;;6.30;4.70;;;;;;;11.93;100.00;98276.91;431350;1273;139220;-65
2023/10/22 07:50:43;;;;;;;4.50;4.20;;;;;;;11.99;100.00;98277.15;430585;1272;140026;-65
2023/10/22 08:00:49;;;;;;;5.40;4.80;;;;;;;12.08;100.00;98282.43;430398;1271;139846;-64
2023/10/22 08:10:58;;;;;;;6.90;6.20;;;;;;;12.17;100.00;98295.68;430478;1272;139313;-65
2023/10/22 08:21:06;;;;;;;6.50;5.90;;;;;;;12.20;100.00;98302.44;431398;1270;141094;-65
2023/10/22 08:31:12;;;;;;;5.40;5.00;;;;;;;12.21;100.00;98304.58;430448;1270;141882;-65
2023/10/22 08:41:23;;;;;;;6.90;6.20;;;;;;;12.21;100.00;98308.17;430635;1273;139053;-66
2023/10/22 08:51:29;;;;;;;6.80;6.10;;;;;;;12.23;100.00;98305.54;430428;1273;140759;-66
2023/10/22 09:01:35;;;;;;;6.50;5.90;;;;;;;12.20;100.00;98315.90;430494;1272;139215;-65
2023/10/22 09:11:53;;;;;;;5.20;4.70;;;;;;;12.17;100.00;98317.10;431040;1270;139639;-65
2023/10/22 09:21:59;;;;;;;4.10;3.70;;;;;;;12.16;100.00;98316.29;430426;1270;139802;-65
2023/10/22 09:32:09;;;;;;;5.60;5.20;;;;;;;12.17;100.00;98318.50;430573;1272;139300;-66
2023/10/22 09:42:16;;;;;;;5.40;4.90;;;;;;;12.15;100.00;98322.02;430747;1273;139372;-65
2023/10/22 09:52:24;;;;;;;7.70;6.70;;;;;;;12.09;100.00;98329.59;430582;1270;139207;-65
2023/10/22 10:02:30;;;;;;;5.70;4.50;;;;;;;12.01;100.00;98323.55;430493;1273;140275;-65
2023/10/22 10:12:39;;;;;;;5.30;4.20;;;;;;;11.97;100.00;98318.27;430353;1273;140320;-65
2023/10/22 10:22:45;;;;;;;5.60;5.10;;;;;;;11.98;100.00;98312.09;431300;1272;140229;-65
2023/10/22 10:32:52;;;;;;;5.50;5.10;;;;;;;12.00;100.00;98306.80;431035;1273;140220;-65
2023/10/22 10:43:19;;;;;;;4.50;4.10;;;;;;;12.02;100.00;98308.59;430561;1273;139352;-64
2023/10/22 10:53:24;;;;;;;4.90;4.30;;;;;;;12.04;100.00;98306.77;431247;1269;139650;-65
2023/10/22 11:03:49;;;;;;;4.50;4.10;;;;;;;12.05;100.00;98304.83;430746;1273;139393;-65
2023/10/22 11:13:55;;;;;;;5.50;5.00;;;;;;;12.11;100.00;98312.02;431350;1273;139389;-65
2023/10/22 11:24:01;;;;;;;7.10;6.50;;;;;;;12.22;100.00;98313.33;430987;1270;139872;-66
2023/10/22 11:34:17;;;;;;;8.90;7.70;;;;;;;12.23;100.00;98312.63;430653;1273;140154;-66
2023/10/22 11:44:33;;;;;;;7.70;7.00;;;;;;;12.34;100.00;98318.20;430267;1273;139235;-64
2023/10/22 11:54:57;;;;;;;5.70;5.20;;;;;;;12.39;100.00;98323.66;430461;1272;140651;-66
2023/10/22 12:05:02;;;;;;;6.50;5.90;;;;;;;12.41;100.00;98334.57;430665;1270;139172;-65
2023/10/22 12:15:11;;;;;;;5.30;4.90;;;;;;;12.40;100.00;98345.34;430460;1272;139260;-65
2023/10/22 12:25:17;;;;;;;5.80;5.30;;;;;;;12.39;100.00;98355.60;430527;1272;140354;-65
2023/10/22 12:35:23;;;;;;;5.10;4.70;;;;;;;12.41;100.00;98369.13;430357;1272;139357;-66
2023/10/22 12:45:29;;;;;;;6.30;5.50;;;;;;;12.37;100.00;98377.91;431031;1268;139542;-64
2023/10/22 12:55:35;;;;;;;5.50;5.00;;;;;;;12.50;100.00;98384.34;430609;1270;139304;-65
2023/10/22 13:05:41;;;;;;;6.40;5.80;;;;;;;12.63;100.00;98401.05;431074;1272;140136;-65
2023/10/22 13:15:47;;;;;;;6.00;5.50;;;;;;;12.72;100.00;98419.67;430586;1272;140394;-64
2023/10/22 13:25:52;;;;;;;5.10;4.60;;;;;;;12.79;100.00;98432.75;430488;1270;139411;-65
2023/10/22 13:36:03;;;;;;;6.00;5.50;;;;;;;12.95;100.00;98440.62;430599;1270;139449;-65
2023/10/22 13:46:09;;;;;;;6.40;5.80;;;;;;;13.13;100.00;98455.81;430467;1270;139285;-66
2023/10/22 13:56:14;;;;;;;6.60;6.00;;;;;;;13.14;100.00;98468.95;430372;1270;140467;-66
2023/10/22 14:06:23;;;;;;;6.30;5.70;;;;;;;13.06;100.00;98477.70;430637;1272;139551;-68
2023/10/22 14:16:29;;;;;;;8.30;7.60;;;;;;;12.96;100.00;98491.84;430621;1269;139594;-64
2023/10/22 14:26:35;;;;;;;8.40;7.50;;;;;;;12.82;100.00;98501.86;430797;1271;139713;-65
2023/10/22 14:36:41;;;;;;;10.40;9.50;;;;;;;12.67;100.00;98511.10;430892;1270;139474;-65
2023/10/22 14:46:47;;;;;;;12.40;11.30;;;;;;;12.52;100.00;98534.53;431542;1270;139639;-65
2023/10/22 14:56:53;;;;;;;12.50;11.30;;;;;;;12.41;100.00;98550.41;430688;1270;140160;-65
2023/10/22 15:06:58;;;;;;;13.40;12.10;;;;;;;12.33;100.00;98572.67;430566;1270;139618;-67
2023/10/22 15:17:05;;;;;;;13.40;12.00;;;;;;;12.22;100.00;98585.96;430716;1270;139716;-66
2023/10/22 15:27:11;;;;;;;13.60;12.40;;;;;;;12.13;100.00;98603.41;430513;1270;139965;-65
2023/10/22 15:37:17;;;;;;;16.20;14.70;;;;;;;12.05;100.00;98616.85;430519;1270;139940;-66
2023/10/22 15:47:26;;;;;;;18.10;16.30;;;;;;;11.99;100.00;98632.55;430829;1272;139665;-66
2023/10/22 15:57:33;;;;;;;15.90;14.20;;;;;;;11.92;100.00;98651.44;430967;1270;140451;-66
2023/10/22 16:07:39;;;;;;;14.90;13.40;;;;;;;11.88;100.00;98669.84;430675;1270;139963;-66
2023/10/22 16:17:46;;;;;;;15.90;14.30;;;;;;;11.80;100.00;98687.64;430746;1272;139473;-66
2023/10/22 16:27:52;;;;;;;13.20;11.70;;;;;;;11.75;100.00;98708.02;430553;1270;140175;-66
2023/10/22 16:37:58;;;;;;;14.60;13.10;;;;;;;11.71;100.00;98723.07;430577;1272;140407;-66
2023/10/22 16:48:05;;;;;;;10.00;8.80;;;;;;;11.68;100.00;98736.12;430972;1272;140240;-65
2023/10/22 16:58:11;;;;;;;10.10;9.20;;;;;;;11.63;100.00;98742.16;431222;1269;139387;-65
2023/10/22 17:08:17;;;;;;;10.50;9.30;;;;;;;11.57;100.00;98756.30;430680;1270;139503;-65
2023/10/22 17:18:23;;;;;;;9.10;7.90;;;;;;;11.54;100.00;98766.19;430692;1270;139594;-65
2023/10/22 17:28:31;;;;;;;9.20;8.30;;;;;;;11.53;100.00;98775.45;430904;1270;139259;-65
2023/10/22 17:38:37;;;;;;;8.20;7.40;;;;;;;11.50;100.00;98786.67;430676;1270;139958;-65
2023/10/22 17:48:43;;;;;;;8.20;7.40;;;;;;;11.47;100.00;98798.14;430809;1270;139227;-65
2023/10/22 17:58:50;;;;;;;8.40;7.60;;;;;;;11.43;100.00;98813.67;431017;1272;139230;-65
2023/10/22 18:08:55;;;;;;;8.10;7.30;;;;;;;11.44;100.00;98826.27;431487;1273;139790;-65
2023/10/22 18:19:02;;;;;;;6.90;6.20;;;;;;;11.42;100.00;98839.36;430849;1270;139451;-65
2023/10/22 18:29:15;;;;;;;8.80;6.90;;;;;;;11.41;100.00;98856.80;430729;1273;139834;-64
2023/10/22 18:39:21;;;;;;;7.60;6.90;;;;;;;11.40;100.00;98871.77;430572;1270;140770;-65
2023/10/22 18:49:26;;;;;;;8.30;7.50;;;;;;;11.39;100.00;98886.38;430607;1271;139329;-65
2023/10/22 18:59:32;;;;;;;9.10;8.30;;;;;;;11.41;100.00;98900.64;430652;1270;166236;-65
2023/10/22 19:09:40;;;;;;;8.60;7.90;;;;;;;11.40;100.00;98905.41;430515;1270;140335;-65
2023/10/22 19:19:51;;;;;;;14.40;10.70;;;;;;;11.39;100.00;98917.05;432473;1270;139534;-66
2023/10/22 19:30:00;;;;;;;9.20;7.40;;;;;;;11.40;100.00;98930.13;430726;1269;139584;-66
2023/10/22 19:40:11;;;;;;;8.30;7.60;;;;;;;11.40;100.00;98939.79;431145;1271;139104;-65
2023/10/22 19:50:18;;;;;;;9.60;8.70;;;;;;;11.41;100.00;98949.70;431167;1270;139381;-65
2023/10/22 20:00:26;;;;;;;8.10;7.30;;;;;;;11.41;100.00;98953.02;430776;1272;139136;-65
2023/10/22 20:10:36;;;;;;;7.10;6.50;;;;;;;11.39;100.00;98964.73;430838;1270;139166;-65
2023/10/22 20:20:48;;;;;;;5.50;5.00;;;;;;;11.37;100.00;98975.39;430932;1270;140452;-65
2023/10/22 20:30:54;;;;;;;4.80;4.00;;;;;;;11.34;100.00;98988.05;430735;1271;139484;-64
2023/10/22 20:41:04;;;;;;;4.90;4.10;;;;;;;11.29;100.00;99004.00;430840;1271;139385;-65
2023/10/22 20:51:12;;;;;;;4.60;3.40;;;;;;;11.20;100.00;99011.92;430636;1272;140882;-64
2023/10/22 21:01:20;;;;;;;5.80;4.20;;;;;;;11.11;100.00;99026.60;431187;1270;140234;-67
2023/10/22 21:11:27;;;;;;;4.30;3.40;;;;;;;11.03;100.00;99036.96;431437;1270;140146;-65
2023/10/22 21:21:32;;;;;;;3.90;3.50;;;;;;;10.97;100.00;99039.52;431523;1270;141281;-65
2023/10/22 21:31:38;;;;;;;3.90;3.60;;;;;;;10.87;100.00;99036.42;432258;1271;139384;-65
2023/10/22 21:41:44;;;;;;;5.50;5.00;;;;;;;10.75;100.00;99039.17;431060;1270;139163;-65
2023/10/22 21:51:50;;;;;;;7.00;6.30;;;;;;;10.63;100.00;99059.67;430628;1271;142520;-65
2023/10/22 22:01:56;;;;;;;7.20;6.50;;;;;;;10.48;100.00;99077.35;430634;1271;140510;-65
2023/10/22 22:12:02;;;;;;;9.60;8.60;;;;;;;10.35;100.00;99086.29;431157;1272;139213;-65
2023/10/22 22:22:08;;;;;;;9.50;8.60;;;;;;;10.30;100.00;99098.92;430861;1270;140861;-63
2023/10/22 22:32:14;;;;;;;10.40;9.50;;;;;;;10.27;100.00;99104.91;430788;1272;139693;-62
2023/10/22 22:42:19;;;;;;;10.10;9.20;;;;;;;10.25;100.00;99111.70;431135;1271;141227;-64
2023/10/22 22:52:25;;;;;;;11.30;10.20;;;;;;;10.20;100.00;99126.52;431868;1269;139524;-64
2023/10/22 23:02:31;;;;;;;11.30;9.80;;;;;;;10.15;100.00;99129.88;431359;1272;140107;-65
2023/10/22 23:12:37;;;;;;;9.60;8.70;;;;;;;10.09;100.00;99138.69;431328;1270;139671;-64
2023/10/22 23:22:43;;;;;;;8.20;7.50;;;;;;;10.06;100.00;99139.02;431336;1270;140807;-64
2023/10/22 23:32:50;;;;;;;8.80;8.00;;;;;;;9.95;100.00;99140.66;430793;1271;139238;-65
2023/10/22 23:42:56;;;;;;;8.00;7.30;;;;;;;9.78;100.00;99149.48;430812;1273;139448;-65
2023/10/22 23:53:02;;;;;;;8.20;7.40;;;;;;;9.75;100.00;99163.34;430675;1273;139320;-65
